Time;durP1;ratioP1;P1;durP2;ratioP2;P2;SDS_P1;SDS_P2;PMS_P1;PMS_P2;Temp;Humidity;BMP_temperature;BMP_pressure;BME280_temperature;BME280_humidity;BME280_pressure;Samples;Min_cycle;Max_cycle;Signal;HPM_P1;HPM_P2
2022/01/29 00:00:23;;;;;;;6.20;5.28;;;;;;;7.04;50.44;96888.63;5089751;28;20069;-64
2022/01/29 00:02:48;;;;;;;7.45;5.03;;;;;;;6.23;51.68;96885.25;5089732;28;20024;-64
2022/01/29 00:05:14;;;;;;;5.85;5.03;;;;;;;6.11;52.40;96909.06;5089564;28;20020;-64
2022/01/29 00:07:42;;;;;;;6.30;5.07;;;;;;;6.17;52.23;96873.78;5070347;28;20024;-64
2022/01/29 00:10:11;;;;;;;9.70;4.97;;;;;;;6.90;50.11;96877.53;5054977;28;20077;-64
2022/01/29 00:12:37;;;;;;;8.50;5.40;;;;;;;6.46;50.73;96877.28;5089518;28;20630;-65
2022/01/29 00:15:03;;;;;;;7.68;5.40;;;;;;;6.44;51.85;96873.25;5051553;28;20024;-65
2022/01/29 00:17:29;;;;;;;8.77;5.32;;;;;;;6.90;50.42;96855.56;5068502;28;20043;-64
2022/01/29 00:19:54;;;;;;;7.40;5.68;;;;;;;7.10;49.24;96841.91;5069144;28;20375;-65
2022/01/29 00:22:20;;;;;;;9.18;6.13;;;;;;;6.93;49.66;96849.81;5069201;28;20024;-65
2022/01/29 00:24:45;;;;;;;10.85;5.97;;;;;;;7.03;49.81;96850.00;5072197;28;20036;-64
2022/01/29 00:27:11;;;;;;;8.82;5.82;;;;;;;6.68;50.69;96836.94;5063417;28;20012;-64
2022/01/29 00:29:40;;;;;;;6.90;5.78;;;;;;;7.01;49.72;96817.66;5089381;28;20464;-66
2022/01/29 00:32:07;;;;;;;8.32;5.90;;;;;;;7.45;49.26;96836.38;5071263;28;20032;-65
2022/01/29 00:34:33;;;;;;;10.38;6.28;;;;;;;7.34;48.51;96818.72;5092880;28;20101;-65
2022/01/29 00:36:58;;;;;;;10.50;5.70;;;;;;;7.89;48.08;96824.03;5074563;28;20410;-65
2022/01/29 00:39:24;;;;;;;7.45;6.55;;;;;;;8.20;47.21;96811.16;5088409;28;20103;-64
2022/01/29 00:41:49;;;;;;;12.80;6.10;;;;;;;7.93;46.75;96821.66;5090718;28;20046;-65
2022/01/29 00:44:15;;;;;;;6.65;5.70;;;;;;;7.43;48.11;96781.00;5093346;28;20646;-63
2022/01/29 00:46:41;;;;;;;7.68;5.85;;;;;;;8.17;46.95;96804.47;5074545;28;20438;-63
2022/01/29 00:49:12;;;;;;;9.05;5.25;;;;;;;7.02;48.80;96803.41;5093135;28;20024;-63
2022/01/29 00:51:37;;;;;;;6.53;5.72;;;;;;;6.41;50.51;96792.59;5093219;28;20028;-63
2022/01/29 00:54:04;;;;;;;9.25;5.65;;;;;;;6.74;50.30;96813.00;5091035;28;20035;-65
2022/01/29 00:56:29;;;;;;;10.75;6.13;;;;;;;7.14;49.31;96798.03;5087556;28;20372;-62
2022/01/29 00:58:55;;;;;;;10.10;6.90;;;;;;;6.85;49.26;96821.91;5092972;28;20115;-63
2022/01/29 01:01:20;;;;;;;11.98;6.38;;;;;;;6.28;51.57;96831.69;5093353;28;20016;-65
2022/01/29 01:03:45;;;;;;;10.32;6.53;;;;;;;6.17;52.28;96823.56;5093064;28;20585;-62
2022/01/29 01:06:11;;;;;;;7.50;5.88;;;;;;;6.39;50.93;96760.28;5092760;28;20738;-65
2022/01/29 01:08:36;;;;;;;9.38;6.60;;;;;;;7.03;49.53;96789.16;5091880;28;20079;-63
2022/01/29 01:11:03;;;;;;;10.20;6.85;;;;;;;7.04;49.44;96804.78;5084008;28;20520;-65
2022/01/29 01:13:30;;;;;;;10.85;6.57;;;;;;;6.93;49.39;96778.41;5087355;28;20043;-65
2022/01/29 01:15:55;;;;;;;11.48;6.93;;;;;;;7.11;49.21;96762.25;5070948;28;20031;-65
2022/01/29 01:18:20;;;;;;;8.90;6.65;;;;;;;7.17;48.68;96773.75;5071845;28;20495;-65
2022/01/29 01:20:46;;;;;;;9.52;6.45;;;;;;;7.03;49.14;96778.56;5071182;28;20485;-65
2022/01/29 01:23:11;;;;;;;11.95;7.10;;;;;;;6.96;49.11;96764.66;5074379;28;20047;-64
2022/01/29 01:25:37;;;;;;;9.30;6.75;;;;;;;7.44;49.11;96766.72;5078726;28;20394;-65
2022/01/29 01:28:03;;;;;;;8.43;6.65;;;;;;;7.47;48.11;96739.78;5091068;28;20454;-65
2022/01/29 01:30:28;;;;;;;10.10;6.65;;;;;;;7.08;49.01;96767.25;5092361;28;20465;-64
2022/01/29 01:32:54;;;;;;;8.88;6.25;;;;;;;7.03;49.71;96760.84;5074333;28;20650;-64
2022/01/29 01:35:25;;;;;;;9.15;6.95;;;;;;;7.91;48.37;96760.19;5092175;28;20107;-65
2022/01/29 01:38:16;;;;;;;9.33;6.97;;;;;;;7.86;47.90;96715.06;5091720;28;20107;-65
2022/01/29 01:40:38;;;;;;;7.00;6.30;;;;;;;7.95;47.49;96748.03;5080263;28;20051;-65
2022/01/29 01:43:04;;;;;;;8.65;6.25;;;;;;;8.23;47.02;96742.50;5085089;28;20044;-65
2022/01/29 01:45:29;;;;;;;8.45;5.97;;;;;;;8.22;46.64;96726.84;5091012;28;20113;-64
2022/01/29 01:47:56;;;;;;;8.20;6.28;;;;;;;7.73;46.67;96714.41;5091690;28;20024;-64
2022/01/29 01:50:22;;;;;;;9.85;6.15;;;;;;;7.68;46.79;96687.88;5092084;28;20028;-65
2022/01/29 01:52:51;;;;;;;12.05;6.55;;;;;;;8.28;46.63;96734.59;5092198;28;20026;-64
2022/01/29 01:55:17;;;;;;;9.90;6.35;;;;;;;8.44;46.54;96732.13;5080645;28;20032;-64
2022/01/29 01:57:43;;;;;;;8.52;5.68;;;;;;;7.78;47.03;96724.28;5062717;28;20023;-65
2022/01/29 02:00:10;;;;;;;9.60;5.93;;;;;;;7.77;47.13;96722.66;5091885;28;20028;-63
2022/01/29 02:02:36;;;;;;;9.00;6.35;;;;;;;7.88;46.59;96719.06;5091475;28;20031;-63
2022/01/29 02:05:02;;;;;;;9.85;6.35;;;;;;;7.42;47.58;96720.34;5091717;28;20028;-64
2022/01/29 02:07:29;;;;;;;7.18;5.60;;;;;;;7.46;47.77;96702.94;5091292;28;20111;-62
2022/01/29 02:09:54;;;;;;;8.63;5.60;;;;;;;6.94;48.67;96705.94;5065610;28;20029;-64
2022/01/29 02:12:20;;;;;;;8.50;6.38;;;;;;;7.10;48.55;96697.16;5084992;28;20024;-66
2022/01/29 02:14:45;;;;;;;8.45;5.68;;;;;;;7.15;47.77;96704.38;5091574;28;20485;-65
2022/01/29 02:17:11;;;;;;;9.63;5.97;;;;;;;6.90;48.38;96691.56;5072890;28;20032;-64
2022/01/29 02:19:37;;;;;;;8.80;6.15;;;;;;;6.95;48.63;96691.66;5091806;28;20027;-66
2022/01/29 02:22:04;;;;;;;6.43;5.80;;;;;;;7.48;48.25;96688.41;5091617;28;20051;-65
2022/01/29 02:24:30;;;;;;;9.60;6.43;;;;;;;7.65;47.11;96682.25;5085573;28;20482;-65
2022/01/29 02:26:55;;;;;;;7.30;6.32;;;;;;;7.49;47.37;96662.75;5082333;28;20108;-64
2022/01/29 02:29:21;;;;;;;7.93;5.82;;;;;;;7.53;47.40;96645.31;5091396;28;20080;-65
2022/01/29 02:31:52;;;;;;;8.63;6.28;;;;;;;7.99;46.47;96645.81;5073411;28;20560;-64
2022/01/29 02:34:18;;;;;;;9.55;6.50;;;;;;;7.62;46.64;96624.47;5091462;28;20055;-65
2022/01/29 02:36:44;;;;;;;10.07;6.20;;;;;;;7.34;46.54;96620.19;5090733;28;20423;-65
2022/01/29 02:39:16;;;;;;;10.00;6.15;;;;;;;7.87;46.37;96653.09;5090387;28;20023;-64
2022/01/29 02:41:44;;;;;;;8.48;5.40;;;;;;;7.97;46.08;96661.16;5083938;28;20120;-65
2022/01/29 02:44:16;;;;;;;12.02;6.10;;;;;;;8.07;45.90;96645.34;5091352;28;20028;-66
2022/01/29 02:49:12;;;;;;;7.60;5.50;;;;;;;7.66;46.39;96638.81;5091298;28;19919;-65
2022/01/29 02:52:05;;;;;;;9.55;5.80;;;;;;;7.34;47.11;96651.97;5091267;28;20028;-65
2022/01/29 02:54:34;;;;;;;10.95;5.50;;;;;;;6.96;48.19;96649.09;5084574;28;20048;-65
2022/01/29 02:56:59;;;;;;;7.20;5.32;;;;;;;6.90;47.72;96638.69;5082320;28;20481;-64
2022/01/29 02:59:28;;;;;;;6.38;5.20;;;;;;;6.70;48.60;96668.28;5090865;28;20055;-64
2022/01/29 03:01:53;;;;;;;10.18;6.13;;;;;;;5.82;50.77;96656.47;5072259;28;20036;-64
2022/01/29 03:04:19;;;;;;;13.18;6.60;;;;;;;5.87;50.96;96667.91;5090880;28;20032;-66
2022/01/29 03:06:44;;;;;;;9.80;6.13;;;;;;;5.37;52.94;96679.09;5090736;28;20039;-65
2022/01/29 03:09:09;;;;;;;14.35;7.78;;;;;;;4.99;53.56;96658.50;5087504;28;20024;-65
2022/01/29 03:11:35;;;;;;;11.88;7.22;;;;;;;5.14;53.18;96658.84;5086444;28;20363;-65
2022/01/29 03:14:01;;;;;;;10.60;7.72;;;;;;;5.81;51.96;96649.59;5090492;28;20020;-63
2022/01/29 03:16:26;;;;;;;14.20;7.55;;;;;;;6.27;50.70;96631.91;5090061;28;20040;-66
2022/01/29 03:18:52;;;;;;;8.52;6.10;;;;;;;6.29;50.03;96606.84;5072104;28;20590;-65
2022/01/29 03:21:17;;;;;;;9.02;6.07;;;;;;;6.11;50.66;96622.94;5090512;28;20031;-65
2022/01/29 03:23:42;;;;;;;7.97;5.70;;;;;;;5.63;52.18;96603.88;5089978;28;20058;-65
2022/01/29 03:26:08;;;;;;;8.73;5.47;;;;;;;5.64;52.29;96608.09;5073510;28;20020;-66
2022/01/29 03:28:33;;;;;;;8.73;5.53;;;;;;;5.12;53.49;96578.34;5084484;28;20111;-65
2022/01/29 03:30:59;;;;;;;11.43;5.82;;;;;;;4.86;54.87;96648.19;5089213;28;20024;-65
2022/01/29 03:33:24;;;;;;;6.90;5.63;;;;;;;5.02;54.10;96625.63;5089983;28;20546;-65
2022/01/29 03:35:51;;;;;;;7.78;6.50;;;;;;;4.61;55.79;96638.72;5090211;28;20028;-65
2022/01/29 03:38:19;;;;;;;9.43;6.25;;;;;;;5.56;53.45;96626.94;5071393;28;20039;-65
2022/01/29 03:40:48;;;;;;;8.52;5.78;;;;;;;5.46;53.96;96613.56;5075290;28;20112;-63
2022/01/29 03:43:16;;;;;;;10.40;6.30;;;;;;;5.05;54.14;96577.66;5082892;28;20027;-65
2022/01/29 03:45:41;;;;;;;7.22;5.90;;;;;;;5.94;52.69;96612.34;5089830;28;20024;-64
2022/01/29 03:48:07;;;;;;;11.23;6.10;;;;;;;5.92;52.63;96615.22;5089444;28;20035;-65
2022/01/29 03:50:34;;;;;;;12.35;5.82;;;;;;;5.98;51.70;96602.91;5071789;28;20020;-64
2022/01/29 03:52:59;;;;;;;8.90;5.72;;;;;;;6.14;51.80;96604.78;5090072;28;20488;-64
2022/01/29 03:55:25;;;;;;;8.60;5.47;;;;;;;5.44;52.63;96600.59;5077244;28;20036;-64
2022/01/29 03:57:50;;;;;;;10.48;5.70;;;;;;;6.26;51.28;96594.13;5086714;28;20031;-65
2022/01/29 04:00:16;;;;;;;9.13;6.13;;;;;;;6.73;50.00;96586.63;5089769;28;20028;-64
2022/01/29 04:02:41;;;;;;;7.25;5.78;;;;;;;6.43;49.68;96583.53;5089732;28;20448;-64
2022/01/29 04:05:07;;;;;;;8.52;5.78;;;;;;;7.09;49.37;96595.03;5089691;28;20154;-64
2022/01/29 04:07:33;;;;;;;6.75;5.75;;;;;;;6.89;49.08;96595.56;5088652;28;20058;-64
2022/01/29 04:09:59;;;;;;;8.82;5.38;;;;;;;6.43;50.51;96575.59;5088256;28;20642;-65
2022/01/29 04:12:27;;;;;;;7.90;5.43;;;;;;;6.60;50.37;96565.81;5083684;28;20027;-64
2022/01/29 04:14:54;;;;;;;9.90;6.00;;;;;;;6.44;49.77;96561.34;5089389;28;20380;-64
2022/01/29 04:17:19;;;;;;;10.30;5.82;;;;;;;6.23;50.34;96531.19;5088781;28;20515;-64
2022/01/29 04:19:45;;;;;;;7.82;5.88;;;;;;;6.73;49.74;96560.16;5089513;28;20028;-64
2022/01/29 04:22:10;;;;;;;10.15;6.15;;;;;;;6.56;50.27;96575.28;5089626;28;20020;-64
2022/01/29 04:24:36;;;;;;;7.22;5.05;;;;;;;6.79;49.60;96547.81;5089179;28;20036;-64
2022/01/29 04:27:04;;;;;;;9.00;5.80;;;;;;;7.08;49.06;96566.16;5074649;28;20034;-64
2022/01/29 04:29:40;;;;;;;7.35;5.95;;;;;;;7.47;48.67;96569.50;5089174;28;20400;-64
2022/01/29 04:32:11;;;;;;;6.05;5.03;;;;;;;7.33;48.05;96563.81;5089546;28;20016;-64
2022/01/29 04:34:37;;;;;;;10.93;6.50;;;;;;;7.74;47.74;96566.88;5089310;28;20416;-65
2022/01/29 04:37:02;;;;;;;7.95;5.63;;;;;;;7.91;47.39;96572.06;5089017;28;20035;-64
2022/01/29 04:39:28;;;;;;;9.23;6.07;;;;;;;8.15;47.24;96557.44;5088734;28;20382;-64
2022/01/29 04:41:53;;;;;;;11.05;6.10;;;;;;;8.09;47.35;96545.22;5074837;28;20079;-64
2022/01/29 04:44:18;;;;;;;12.30;5.90;;;;;;;7.75;46.60;96555.25;5089194;28;20028;-64
2022/01/29 04:46:44;;;;;;;9.18;5.47;;;;;;;7.00;48.87;96540.94;5088779;28;20028;-64
2022/01/29 04:49:10;;;;;;;8.15;5.45;;;;;;;7.15;48.75;96570.22;5089053;28;20024;-64
2022/01/29 04:51:35;;;;;;;6.63;5.07;;;;;;;7.14;48.51;96558.03;5089264;28;20420;-64
2022/01/29 04:54:00;;;;;;;8.25;5.43;;;;;;;6.92;49.99;96573.91;5088656;28;20024;-64
2022/01/29 04:56:26;;;;;;;7.95;5.63;;;;;;;6.43;50.47;96567.69;5076596;28;20044;-65
2022/01/29 04:58:51;;;;;;;13.82;6.07;;;;;;;6.61;50.36;96561.34;5093583;28;20423;-64
2022/01/29 05:01:16;;;;;;;7.20;5.68;;;;;;;6.69;49.32;96537.09;5089206;28;20024;-64
2022/01/29 05:03:42;;;;;;;7.60;5.30;;;;;;;6.76;49.71;96541.19;5088973;28;20032;-64
2022/01/29 05:06:09;;;;;;;6.75;5.32;;;;;;;6.28;50.59;96570.09;5089066;28;20051;-64
2022/01/29 05:08:39;;;;;;;7.25;5.22;;;;;;;6.25;51.87;96574.84;5088465;28;20024;-64
2022/01/29 05:11:05;;;;;;;11.95;5.82;;;;;;;6.38;51.61;96562.31;5079420;28;20031;-65
2022/01/29 05:13:32;;;;;;;9.48;5.70;;;;;;;6.46;50.07;96519.63;5083950;28;20021;-64
2022/01/29 05:26:54;;;;;;;9.48;6.20;;;;;;;7.42;48.83;96550.91;5082202;28;20040;-63
2022/01/29 05:29:20;;;;;;;8.18;6.28;;;;;;;7.61;48.29;96554.03;5085848;28;20484;-63
2022/01/29 05:31:45;;;;;;;9.00;5.60;;;;;;;7.34;48.09;96546.88;5092514;28;20028;-66
2022/01/29 05:34:11;;;;;;;9.07;7.03;;;;;;;6.95;49.34;96554.09;5092227;28;20439;-65
2022/01/29 05:36:36;;;;;;;8.80;6.78;;;;;;;7.31;48.88;96550.00;5092130;28;20074;-65
2022/01/29 05:39:04;;;;;;;8.43;7.00;;;;;;;6.88;49.14;96548.19;5092066;28;20021;-63
2022/01/29 05:41:29;;;;;;;8.98;6.88;;;;;;;6.61;49.91;96525.13;5086591;28;20032;-63
2022/01/29 05:43:55;;;;;;;6.72;6.10;;;;;;;7.10;49.76;96522.53;5065288;28;20028;-65
2022/01/29 05:46:20;;;;;;;7.57;6.45;;;;;;;7.32;49.00;96534.94;5091715;28;20157;-66
2022/01/29 05:48:46;;;;;;;7.90;6.30;;;;;;;6.91;49.44;96513.31;5092309;28;20093;-65
2022/01/29 05:51:12;;;;;;;9.85;5.68;;;;;;;6.68;49.83;96528.38;5092278;28;20466;-65
2022/01/29 05:53:38;;;;;;;9.95;6.38;;;;;;;6.79;49.05;96473.75;5092209;28;20098;-63
2022/01/29 05:56:04;;;;;;;11.27;6.70;;;;;;;6.57;49.97;96529.28;5089648;28;20101;-65
2022/01/29 05:58:29;;;;;;;11.75;6.20;;;;;;;6.40;49.77;96487.03;5093225;28;20028;-64
2022/01/29 06:00:55;;;;;;;8.38;6.15;;;;;;;6.63;49.42;96512.44;5092133;28;20024;-63
2022/01/29 06:03:20;;;;;;;7.30;5.45;;;;;;;6.28;49.87;96491.63;5092115;28;20460;-64
2022/01/29 06:05:46;;;;;;;7.05;5.53;;;;;;;6.07;49.52;96484.44;5092145;28;20042;-64
2022/01/29 06:08:11;;;;;;;10.75;5.53;;;;;;;6.76;49.28;96538.53;5091469;28;20037;-63
2022/01/29 06:10:37;;;;;;;6.63;5.20;;;;;;;6.30;49.96;96512.53;5091192;28;20100;-65
2022/01/29 06:13:10;;;;;;;8.93;6.15;;;;;;;7.36;48.27;96528.09;5077142;28;20016;-64
2022/01/29 06:15:39;;;;;;;10.20;5.10;;;;;;;7.62;46.78;96522.00;5091480;28;20040;-64
2022/01/29 06:18:06;;;;;;;5.47;4.90;;;;;;;7.84;46.85;96531.75;5091305;28;20016;-67
2022/01/29 06:20:31;;;;;;;5.82;4.50;;;;;;;7.78;45.86;96526.41;5091656;28;20381;-63
2022/01/29 06:22:57;;;;;;;6.20;4.88;;;;;;;7.58;45.93;96512.97;5091829;28;20039;-64
2022/01/29 06:25:23;;;;;;;5.85;4.55;;;;;;;7.48;45.39;96518.97;5086849;28;20659;-65
2022/01/29 06:27:48;;;;;;;5.70;4.78;;;;;;;7.11;46.14;96497.66;5074146;28;20032;-66
2022/01/29 06:30:15;;;;;;;5.63;3.92;;;;;;;6.76;47.02;96490.16;5091276;28;20020;-65
2022/01/29 06:32:40;;;;;;;5.95;4.05;;;;;;;6.80;47.62;96533.53;5091639;28;20465;-66
2022/01/29 06:35:06;;;;;;;4.90;3.53;;;;;;;6.43;48.05;96528.81;5091433;28;20042;-61
2022/01/29 06:37:32;;;;;;;4.13;3.63;;;;;;;7.51;45.48;96537.00;5090749;28;20020;-64
2022/01/29 06:39:57;;;;;;;6.85;3.42;;;;;;;7.63;45.07;96522.81;5090123;28;20707;-65
2022/01/29 06:42:22;;;;;;;4.97;3.65;;;;;;;7.75;43.96;96524.25;5080733;28;20031;-64
2022/01/29 06:44:48;;;;;;;5.88;3.95;;;;;;;8.19;44.31;96518.78;5063215;28;20024;-67
2022/01/29 06:47:13;;;;;;;3.67;3.33;;;;;;;8.35;44.01;96501.13;5092228;28;20082;-64
2022/01/29 06:49:39;;;;;;;5.35;2.95;;;;;;;8.64;42.89;96500.75;5091083;28;20030;-64
2022/01/29 06:52:04;;;;;;;3.78;3.47;;;;;;;8.92;41.61;96502.22;5091833;28;20020;-64
2022/01/29 06:54:30;;;;;;;4.03;2.78;;;;;;;8.85;41.10;96500.63;5091229;28;20095;-68
2022/01/29 06:56:55;;;;;;;6.45;2.85;;;;;;;7.25;43.33;96512.09;5076389;28;20490;-68
2022/01/29 06:59:21;;;;;;;2.60;2.40;;;;;;;6.77;44.79;96518.97;5060402;28;20392;-67
2022/01/29 07:01:46;;;;;;;3.45;2.40;;;;;;;6.41;46.10;96524.84;5070106;28;20031;-67
2022/01/29 07:04:11;;;;;;;3.88;3.10;;;;;;;6.42;46.26;96510.56;5072537;28;20024;-66
2022/01/29 07:06:37;;;;;;;4.88;2.63;;;;;;;6.31;47.08;96495.63;5090557;28;20374;-66
2022/01/29 07:09:03;;;;;;;3.35;2.83;;;;;;;7.43;44.84;96495.09;5072212;28;20030;-69
2022/01/29 07:11:28;;;;;;;3.30;3.00;;;;;;;7.48;44.32;96470.53;5077959;28;20028;-71
2022/01/29 07:14:03;;;;;;;4.03;3.00;;;;;;;8.19;42.30;96484.31;5088565;28;20025;-61
2022/01/29 07:16:31;;;;;;;5.55;2.88;;;;;;;7.88;43.28;96467.38;5089967;28;20030;-65
2022/01/29 07:18:56;;;;;;;5.70;3.10;;;;;;;7.54;43.59;96488.03;5090891;28;20427;-63
2022/01/29 07:21:22;;;;;;;3.40;2.80;;;;;;;7.64;43.42;96474.91;5090450;28;20081;-64
2022/01/29 07:23:47;;;;;;;3.35;3.00;;;;;;;8.03;42.80;96466.69;5090313;28;20645;-64
2022/01/29 07:26:13;;;;;;;3.95;2.70;;;;;;;7.98;42.62;96477.25;5079856;28;20036;-65
2022/01/29 07:28:39;;;;;;;3.30;2.53;;;;;;;8.38;41.08;96441.50;5060622;28;20152;-66
2022/01/29 07:31:05;;;;;;;3.80;2.70;;;;;;;8.44;41.08;96485.53;5090340;28;20032;-66
2022/01/29 07:33:30;;;;;;;5.00;3.67;;;;;;;8.41;41.63;96468.31;5072354;28;20423;-66
2022/01/29 07:35:56;;;;;;;3.45;2.97;;;;;;;9.17;40.54;96478.41;5090849;28;20036;-68
2022/01/29 07:38:21;;;;;;;3.38;2.30;;;;;;;7.68;41.41;96475.19;5089232;28;20417;-67
2022/01/29 07:40:47;;;;;;;2.80;2.50;;;;;;;6.81;43.75;96490.22;5063832;28;20024;-67
2022/01/29 07:43:12;;;;;;;2.63;2.35;;;;;;;7.58;42.32;96485.72;5060249;28;20054;-66
2022/01/29 07:45:38;;;;;;;2.60;1.95;;;;;;;7.69;42.38;96467.00;5068264;28;20027;-66
2022/01/29 07:48:03;;;;;;;3.22;2.22;;;;;;;7.43;42.80;96510.97;5068825;28;20029;-65
2022/01/29 07:50:29;;;;;;;3.05;1.98;;;;;;;7.19;43.40;96491.16;5069642;28;20043;-68
2022/01/29 07:52:59;;;;;;;2.97;2.20;;;;;;;6.60;43.56;96457.41;5068399;28;20021;-67
2022/01/29 07:55:29;;;;;;;4.60;3.38;;;;;;;7.88;42.11;96498.38;5074875;28;20032;-66
2022/01/29 07:57:55;;;;;;;3.35;2.65;;;;;;;7.37;42.87;96489.97;5055447;28;20077;-66
2022/01/29 08:00:21;;;;;;;3.47;2.00;;;;;;;8.01;41.16;96468.81;5089660;28;20032;-67
2022/01/29 08:02:46;;;;;;;2.92;2.13;;;;;;;7.86;41.74;96487.25;5071709;28;20085;-66
2022/01/29 08:05:11;;;;;;;2.50;2.30;;;;;;;8.70;40.49;96492.59;5089648;28;20384;-69
2022/01/29 08:07:38;;;;;;;4.70;2.90;;;;;;;8.45;40.67;96474.69;5071317;28;20024;-67
2022/01/29 08:10:05;;;;;;;3.15;2.42;;;;;;;8.15;41.35;96485.09;5089196;28;20030;-68
2022/01/29 08:12:30;;;;;;;4.70;2.50;;;;;;;8.58;40.54;96476.06;5057666;28;20034;-66
2022/01/29 08:14:56;;;;;;;4.20;2.28;;;;;;;8.17;40.98;96488.25;5071614;28;20028;-66
2022/01/29 08:17:21;;;;;;;2.38;2.13;;;;;;;8.24;40.79;96496.78;5089231;28;20457;-67
2022/01/29 08:19:48;;;;;;;2.30;1.90;;;;;;;9.19;39.25;96470.97;5089299;28;20028;-68
2022/01/29 08:22:13;;;;;;;2.97;2.08;;;;;;;7.88;41.20;96490.44;5089455;28;20016;-67
2022/01/29 08:24:39;;;;;;;2.63;2.10;;;;;;;7.97;41.39;96484.41;5071418;28;20358;-67
2022/01/29 08:27:05;;;;;;;3.03;1.75;;;;;;;8.74;39.91;96483.03;5061361;28;20020;-68
2022/01/29 08:29:30;;;;;;;2.83;2.15;;;;;;;8.48;39.78;96449.50;5084296;28;20028;-66
2022/01/29 08:31:56;;;;;;;2.55;2.30;;;;;;;8.85;40.02;96465.28;5068184;28;20017;-69
2022/01/29 08:34:21;;;;;;;3.58;2.17;;;;;;;8.95;39.27;96452.06;5070363;28;20024;-66
2022/01/29 08:36:46;;;;;;;5.78;2.30;;;;;;;8.67;39.04;96455.97;5066256;28;20500;-68
2022/01/29 08:39:12;;;;;;;3.17;1.88;;;;;;;9.03;38.50;96448.13;5095737;28;20091;-67
2022/01/29 08:41:37;;;;;;;3.20;2.15;;;;;;;8.87;38.98;96436.66;5070886;28;20020;-66
2022/01/29 08:44:03;;;;;;;3.97;2.28;;;;;;;9.16;38.36;96430.88;5071661;28;20052;-66
2022/01/29 08:46:28;;;;;;;4.07;1.95;;;;;;;9.51;37.45;96454.03;5058655;28;20428;-66
2022/01/29 08:48:54;;;;;;;1.85;1.60;;;;;;;9.58;37.02;96466.00;5050791;28;20032;-67
2022/01/29 08:51:19;;;;;;;4.10;1.85;;;;;;;9.37;37.34;96451.13;5069126;28;20028;-66
2022/01/29 08:53:44;;;;;;;2.15;1.95;;;;;;;9.11;38.03;96439.66;5069989;28;20355;-66
2022/01/29 08:56:10;;;;;;;2.35;2.15;;;;;;;9.13;37.58;96440.19;5064209;28;20500;-67
2022/01/29 08:58:35;;;;;;;3.13;1.50;;;;;;;8.76;38.51;96459.72;5079096;28;20096;-70
2022/01/29 09:01:02;;;;;;;4.53;1.70;;;;;;;9.09;37.41;96425.84;5092350;28;20686;-65
2022/01/29 09:03:27;;;;;;;3.78;1.80;;;;;;;9.58;36.86;96455.38;5092835;28;20060;-70
2022/01/29 09:05:53;;;;;;;1.52;1.42;;;;;;;9.57;36.02;96437.03;5074985;28;20115;-69
2022/01/29 09:08:19;;;;;;;2.08;1.40;;;;;;;9.74;36.15;96429.59;5074353;28;20016;-70
2022/01/29 09:10:45;;;;;;;3.08;1.70;;;;;;;9.88;35.68;96443.97;5074463;28;20020;-68
2022/01/29 09:13:12;;;;;;;2.45;1.52;;;;;;;10.53;34.66;96436.13;5065663;28;20074;-64
2022/01/29 09:15:38;;;;;;;2.25;1.60;;;;;;;10.21;34.97;96447.09;5058361;28;20432;-65
2022/01/29 09:18:03;;;;;;;2.80;1.40;;;;;;;8.78;36.58;96444.31;5091712;28;20032;-68
2022/01/29 09:20:29;;;;;;;5.05;1.30;;;;;;;9.07;35.54;96414.69;5092797;28;20024;-64
2022/01/29 09:22:54;;;;;;;2.97;1.30;;;;;;;8.96;36.51;96427.16;5074631;28;20028;-64
2022/01/29 09:25:20;;;;;;;1.80;1.17;;;;;;;8.73;36.15;96436.34;5092396;28;20479;-65
2022/01/29 09:27:46;;;;;;;2.90;1.15;;;;;;;8.26;36.07;96402.72;5077704;28;20029;-66
2022/01/29 09:30:11;;;;;;;1.92;1.20;;;;;;;8.11;36.71;96393.88;5085397;28;20035;-66
2022/01/29 09:32:37;;;;;;;1.98;1.25;;;;;;;8.78;35.98;96424.97;5092639;28;20024;-67
2022/01/29 09:35:03;;;;;;;3.40;1.30;;;;;;;9.23;34.89;96421.63;5092342;28;20024;-66
2022/01/29 09:37:28;;;;;;;3.20;1.10;;;;;;;8.80;35.67;96426.31;5074007;28;20081;-65
2022/01/29 09:39:54;;;;;;;2.85;1.00;;;;;;;8.33;35.43;96418.38;5092172;28;20070;-65
2022/01/29 09:42:19;;;;;;;1.55;1.08;;;;;;;8.54;35.63;96441.31;5080688;28;20025;-67
2022/01/29 09:44:47;;;;;;;5.50;1.13;;;;;;;8.76;35.33;96424.44;5089295;28;20027;-66
2022/01/29 09:47:13;;;;;;;9.90;1.48;;;;;;;9.16;34.40;96429.03;5070714;28;20024;-65
2022/01/29 09:49:39;;;;;;;2.10;0.90;;;;;;;8.53;35.09;96428.31;5072370;28;20025;-64
2022/01/29 09:52:04;;;;;;;1.20;0.75;;;;;;;8.85;34.02;96431.63;5072217;28;20031;-65
2022/01/29 09:54:30;;;;;;;3.95;0.82;;;;;;;8.76;35.04;96408.50;5071957;28;20117;-65
2022/01/29 09:56:55;;;;;;;9.05;1.10;;;;;;;8.85;33.87;96409.56;5077567;28;20029;-66
2022/01/29 09:59:21;;;;;;;1.05;0.70;;;;;;;8.55;34.69;96434.97;5060332;28;20113;-64
2022/01/29 10:01:47;;;;;;;5.95;1.23;;;;;;;8.77;33.57;96437.44;5073797;28;20702;-66
2022/01/29 10:04:12;;;;;;;2.60;0.80;;;;;;;9.46;32.66;96436.22;5073753;28;20122;-65
2022/01/29 10:06:42;;;;;;;4.72;0.75;;;;;;;9.77;32.61;96437.03;5072581;28;20028;-66
2022/01/29 10:09:11;;;;;;;2.28;0.57;;;;;;;8.87;32.75;96427.91;5093256;28;20028;-65
2022/01/29 10:11:37;;;;;;;1.30;0.70;;;;;;;8.87;33.30;96427.91;5066975;28;20032;-66
2022/01/29 10:14:04;;;;;;;4.55;0.85;;;;;;;9.92;32.70;96428.25;5076837;28;20024;-65
2022/01/29 10:16:32;;;;;;;2.58;0.70;;;;;;;9.71;31.65;96424.81;5091128;28;20538;-66
2022/01/29 10:18:57;;;;;;;1.65;0.82;;;;;;;9.35;33.02;96437.28;5073323;28;20091;-65
2022/01/29 10:21:25;;;;;;;1.00;0.60;;;;;;;8.87;33.30;96444.63;5073349;28;20027;-70
2022/01/29 10:24:07;;;;;;;10.20;0.70;;;;;;;8.98;33.05;96450.75;5073312;28;20024;-67
2022/01/29 10:26:35;;;;;;;0.73;0.50;;;;;;;9.49;32.04;96429.59;5084986;28;20044;-66
2022/01/29 10:29:02;;;;;;;3.05;0.50;;;;;;;9.12;32.66;96443.91;5084589;28;20052;-66
2022/01/29 10:31:48;;;;;;;0.65;0.32;;;;;;;8.86;32.99;96429.78;5092761;28;20027;-68
2022/01/29 10:34:23;;;;;;;4.32;0.50;;;;;;;9.23;32.13;96450.03;5074023;28;20111;-68
2022/01/29 10:37:14;;;;;;;4.97;0.50;;;;;;;9.70;31.40;96436.50;5072997;28;20028;-68
2022/01/29 10:39:40;;;;;;;1.77;0.55;;;;;;;9.45;31.68;96417.91;5073361;28;20024;-67
2022/01/29 10:42:13;;;;;;;1.60;0.50;;;;;;;8.98;31.99;96437.50;5089102;28;20103;-68
2022/01/29 10:44:45;;;;;;;0.65;0.50;;;;;;;9.32;32.25;96441.28;5058920;28;20039;-68
2022/01/29 10:47:10;;;;;;;6.70;0.57;;;;;;;8.53;32.73;96413.19;5065103;28;20112;-68
2022/01/29 10:49:39;;;;;;;0.40;0.32;;;;;;;8.75;32.96;96431.59;5091223;28;20316;-68
2022/01/29 10:52:05;;;;;;;3.05;0.40;;;;;;;9.74;30.92;96434.91;5091469;28;20023;-68
2022/01/29 10:54:36;;;;;;;6.00;0.73;;;;;;;9.43;31.35;96425.34;5072838;28;20020;-68
2022/01/29 10:57:03;;;;;;;2.47;0.73;;;;;;;9.81;30.43;96427.47;5063804;28;20053;-69
2022/01/29 10:59:32;;;;;;;2.08;0.50;;;;;;;9.92;31.05;96417.63;5056714;28;20482;-67
2022/01/29 11:02:01;;;;;;;10.80;8.07;;;;;;;10.35;35.12;96410.94;5081236;28;20623;-64
2022/01/29 11:04:29;;;;;;;7.07;4.75;;;;;;;10.41;33.52;96412.50;5090532;28;20497;-60
2022/01/29 11:06:58;;;;;;;4.45;2.28;;;;;;;10.64;32.73;96410.28;5090324;28;20103;-60
2022/01/29 11:09:25;;;;;;;1.38;1.15;;;;;;;10.40;31.23;96400.28;5090089;28;20024;-61
2022/01/29 11:11:52;;;;;;;3.72;1.20;;;;;;;11.55;29.99;96405.47;5064685;28;20032;-61
2022/01/29 11:14:20;;;;;;;3.45;0.60;;;;;;;11.14;29.81;96395.91;5076213;28;20053;-60
2022/01/29 11:16:46;;;;;;;1.30;0.70;;;;;;;11.11;28.36;96387.69;5089902;28;20036;-68
2022/01/29 11:19:14;;;;;;;1.30;0.50;;;;;;;10.08;29.55;96384.66;5071863;28;20024;-67
2022/01/29 11:21:42;;;;;;;0.57;0.57;;;;;;;9.62;30.08;96366.13;5090605;28;20103;-65
2022/01/29 11:24:09;;;;;;;5.72;0.70;;;;;;;10.39;29.47;96334.06;5090417;28;20032;-69
2022/01/29 11:26:36;;;;;;;3.35;0.50;;;;;;;10.17;29.93;96368.91;5089802;28;20183;-74
2022/01/29 11:29:36;;;;;;;0.50;0.30;;;;;;;9.27;31.54;96380.22;5062949;28;20040;-73
2022/01/29 11:32:20;;;;;;;0.88;0.50;;;;;;;9.31;31.38;96383.91;5090333;28;20023;-67
2022/01/29 11:35:00;;;;;;;1.35;1.10;;;;;;;10.32;29.96;96374.22;5089951;28;20112;-69
2022/01/29 11:37:54;;;;;;;0.82;0.40;;;;;;;9.03;31.02;96373.81;5071475;28;20024;-68
2022/01/29 11:40:22;;;;;;;0.28;0.28;;;;;;;9.34;30.19;96366.66;5079751;28;20035;-67
2022/01/29 11:43:03;;;;;;;0.40;0.40;;;;;;;8.82;30.67;96381.72;5062219;28;20643;-68
2022/01/29 11:45:48;;;;;;;0.68;0.32;;;;;;;8.91;31.10;96378.56;5084534;28;20016;-65
2022/01/29 11:48:30;;;;;;;2.28;0.50;;;;;;;9.25;30.50;96376.22;5051245;28;20042;-65
2022/01/29 11:51:20;;;;;;;0.85;0.80;;;;;;;9.36;30.91;96373.28;5069546;28;20036;-65